Terminal Aerodrome Forecast
Issued by NWS Upton, NY

Home | Current Version | Previous Version | Text Only | Print | Product List | Glossary On
Versions: 1 2 3 4 5 6 7 8 9 10 11 12 13 14 15 16 17 18 19 20 21 22 23 24 25 26 27 28 29
000
FTUS41 KOKX 221100
TAFLGA
TAF
KLGA 221124Z 2212/2312 02006KT P6SM BKN009 OVC015
     FM221400 05007KT P6SM BKN009 OVC020
     FM221600 08008KT 6SM -RA BKN010 OVC020
     FM230700 06008KT 5SM -RA BR OVC008=

USA.gov is the U.S. government's official web portal to all federal, state and local government web resources and services.